Time;durP1;ratioP1;P1;durP2;ratioP2;P2;SDS_P1;SDS_P2;PMS_P1;PMS_P2;Temp;Humidity;BMP_temperature;BMP_pressure;BME280_temperature;BME280_humidity;BME280_pressure;Samples;Min_cycle;Max_cycle;Signal;HPM_P1;HPM_P2
2023/07/30 00:44:24;;;;;;;;;;;;;;;;;;;;;
2023/07/30 00:47:38;;;;;;;;;;;;;;;;;;;;;
2023/07/30 00:50:15;;;;;;;2.60;1.80;;;;;;;17.40;100.00;97673.13;5050237;28;20289;-82
2023/07/30 00:52:43;;;;;;;3.70;1.60;;;;;;;17.36;100.00;97682.44;5052818;28;20577;-82
2023/07/30 00:55:10;;;;;;;3.60;2.10;;;;;;;17.34;100.00;97689.78;5052182;28;20213;-81
2023/07/30 00:57:37;;;;;;;6.80;2.00;;;;;;;17.37;100.00;97694.81;5052196;28;20223;-82
2023/07/30 01:00:08;;;;;;;2.03;1.77;;;;;;;17.35;100.00;97696.78;5028986;28;20205;-81
2023/07/30 01:02:36;;;;;;;1.70;1.53;;;;;;;17.35;100.00;97691.44;5032035;28;20248;-83
2023/07/30 01:05:04;;;;;;;1.83;1.40;;;;;;;17.34;100.00;97695.09;5031956;28;20725;-81
2023/07/30 01:07:32;;;;;;;1.90;1.37;;;;;;;17.27;100.00;97702.09;5031904;28;20209;-81
2023/07/30 01:10:00;;;;;;;2.43;1.57;;;;;;;17.24;100.00;97707.72;5031066;28;20237;-81
2023/07/30 01:12:27;;;;;;;1.70;1.60;;;;;;;17.21;100.00;97705.38;5031972;28;20220;-82
2023/07/30 01:14:56;;;;;;;1.10;1.00;;;;;;;17.21;100.00;97705.38;5031818;28;20208;-81
2023/07/30 01:17:23;;;;;;;1.50;1.10;;;;;;;17.19;100.00;97695.84;5031626;28;20212;-82
2023/07/30 01:19:50;;;;;;;1.40;1.23;;;;;;;17.20;100.00;97705.53;5031162;28;20228;-81
2023/07/30 01:22:18;;;;;;;1.43;1.17;;;;;;;17.24;100.00;97706.91;5031880;28;20212;-82
2023/07/30 01:24:44;;;;;;;1.80;1.30;;;;;;;17.25;100.00;97705.91;5031723;28;20318;-81
2023/07/30 01:27:18;;;;;;;1.53;1.30;;;;;;;17.21;100.00;97713.41;5031772;28;20221;-81
2023/07/30 01:29:51;;;;;;;1.70;1.30;;;;;;;17.24;100.00;97710.41;5031182;28;20224;-83
2023/07/30 01:32:21;;;;;;;2.23;1.30;;;;;;;17.22;100.00;97712.41;5031444;28;20212;-81
2023/07/30 01:34:52;;;;;;;1.40;1.30;;;;;;;17.22;100.00;97717.75;5031646;28;20697;-81
2023/07/30 01:37:21;;;;;;;2.38;1.63;;;;;;;17.24;100.00;97717.59;5031554;28;20460;-83
2023/07/30 01:39:49;;;;;;;2.70;1.37;;;;;;;17.23;100.00;97719.41;5028145;28;20239;-81
2023/07/30 01:42:16;;;;;;;2.20;1.40;;;;;;;17.25;100.00;97711.25;5029570;28;20212;-81
2023/07/30 01:44:43;;;;;;;2.10;1.90;;;;;;;17.29;100.00;97710.78;5030456;28;20233;-81
2023/07/30 01:47:09;;;;;;;3.03;1.80;;;;;;;17.33;100.00;97725.50;5030624;28;20204;-82
2023/07/30 01:49:36;;;;;;;3.20;1.87;;;;;;;17.33;100.00;97735.31;5028561;28;20243;-82
2023/07/30 01:52:04;;;;;;;1.87;1.77;;;;;;;17.31;100.00;97730.13;5030558;28;20219;-81
2023/07/30 01:54:32;;;;;;;2.13;1.80;;;;;;;17.27;100.00;97726.13;5028529;28;20845;-82
2023/07/30 01:57:00;;;;;;;2.43;1.90;;;;;;;17.23;100.00;97730.09;5029457;28;20204;-82
2023/07/30 01:59:27;;;;;;;2.77;2.00;;;;;;;17.20;100.00;97725.06;5029594;28;20243;-82
2023/07/30 02:01:53;;;;;;;2.40;1.90;;;;;;;17.19;100.00;97726.06;5029892;28;20208;-81
2023/07/30 02:04:20;;;;;;;3.17;2.00;;;;;;;17.16;100.00;97723.72;5029038;28;20240;-80
2023/07/30 02:06:46;;;;;;;2.30;2.10;;;;;;;17.15;100.00;97723.84;5030079;28;20204;-82
2023/07/30 02:09:13;;;;;;;1.67;1.50;;;;;;;17.13;100.00;97718.66;5028776;28;20257;-81
2023/07/30 02:11:41;;;;;;;3.20;2.10;;;;;;;17.16;100.00;97718.38;5029690;28;20292;-81
2023/07/30 02:14:07;;;;;;;2.83;1.90;;;;;;;17.18;100.00;97720.88;5030230;28;20209;-81
2023/07/30 02:16:34;;;;;;;2.47;2.10;;;;;;;17.20;100.00;97711.69;5030166;28;20239;-81
2023/07/30 02:19:00;;;;;;;2.20;1.90;;;;;;;17.22;100.00;97712.41;5029023;28;20242;-80
2023/07/30 02:21:27;;;;;;;2.93;2.10;;;;;;;17.20;100.00;97709.03;5029136;28;20221;-81
2023/07/30 02:23:53;;;;;;;3.23;2.43;;;;;;;17.22;100.00;97709.72;5029603;28;20220;-81
2023/07/30 02:26:20;;;;;;;3.07;2.10;;;;;;;17.20;100.00;97714.38;5031050;28;20711;-84
2023/07/30 02:28:47;;;;;;;2.50;2.20;;;;;;;17.21;100.00;97705.38;5031109;28;20316;-78
2023/07/30 02:31:14;;;;;;;3.63;2.63;;;;;;;17.23;100.00;97707.88;5034054;28;20212;-81
2023/07/30 02:33:40;;;;;;;3.00;2.30;;;;;;;17.27;100.00;97707.44;5034903;28;20209;-82
2023/07/30 02:36:07;;;;;;;3.77;2.70;;;;;;;17.29;100.00;97707.25;5034782;28;20209;-82
2023/07/30 02:38:33;;;;;;;3.50;2.80;;;;;;;17.31;100.00;97716.78;5034975;28;20240;-83
2023/07/30 02:41:00;;;;;;;3.20;2.60;;;;;;;17.32;100.00;97713.09;5034371;28;20223;-82
2023/07/30 02:43:26;;;;;;;3.27;2.57;;;;;;;17.35;100.00;97719.97;5034921;28;20223;-84
2023/07/30 02:45:54;;;;;;;2.97;2.70;;;;;;;17.35;100.00;97726.16;5034785;28;20228;-84
2023/07/30 02:48:20;;;;;;;4.20;2.47;;;;;;;17.37;100.00;97726.88;5034565;28;20240;-83
2023/07/30 02:50:47;;;;;;;2.90;2.60;;;;;;;17.38;100.00;97728.53;5034464;28;20566;-83
2023/07/30 02:53:13;;;;;;;5.60;2.80;;;;;;;17.39;100.00;97729.38;5034690;28;20228;-83
2023/07/30 02:55:40;;;;;;;3.70;3.23;;;;;;;17.41;100.00;97727.38;5034743;28;20210;-83
2023/07/30 02:58:06;;;;;;;3.97;3.20;;;;;;;17.45;100.00;97723.41;5034575;28;20237;-83
2023/07/30 03:00:33;;;;;;;4.70;3.30;;;;;;;17.43;100.00;97720.06;5034005;28;20204;-83
2023/07/30 03:03:01;;;;;;;4.67;3.20;;;;;;;17.35;100.00;97717.31;5034388;28;20208;-82
2023/07/30 03:05:27;;;;;;;3.83;3.43;;;;;;;17.32;100.00;97715.78;5034181;28;20229;-82
2023/07/30 03:07:54;;;;;;;4.57;3.50;;;;;;;17.26;100.00;97724.41;5034445;28;20258;-83
2023/07/30 03:10:20;;;;;;;4.07;3.73;;;;;;;17.32;100.00;97723.78;5034310;28;20216;-82
2023/07/30 03:12:47;;;;;;;4.50;3.73;;;;;;;17.34;100.00;97721.81;5034408;28;20679;-83
2023/07/30 03:15:14;;;;;;;4.30;3.57;;;;;;;17.32;100.00;97723.78;5034209;28;20204;-83
2023/07/30 03:17:40;;;;;;;3.80;3.40;;;;;;;17.28;100.00;97721.59;5034048;28;20208;-84
2023/07/30 03:20:10;;;;;;;4.00;3.50;;;;;;;17.24;100.00;97720.25;5033456;28;20655;-81
2023/07/30 03:22:36;;;;;;;3.90;3.30;;;;;;;17.26;100.00;97713.75;5034007;28;20232;-83
2023/07/30 03:25:03;;;;;;;4.03;3.60;;;;;;;17.28;100.00;97717.13;5033814;28;20229;-83
2023/07/30 03:27:30;;;;;;;3.83;3.33;;;;;;;17.32;100.00;97707.75;5034014;28;20299;-83
2023/07/30 03:29:56;;;;;;;4.23;3.83;;;;;;;17.35;100.00;97712.81;5033159;28;20236;-82
2023/07/30 03:32:23;;;;;;;4.93;4.03;;;;;;;17.38;100.00;97717.03;5033890;28;20211;-83
2023/07/30 03:34:49;;;;;;;4.07;3.50;;;;;;;17.41;100.00;97717.56;5033867;28;20220;-83
2023/07/30 03:37:17;;;;;;;6.00;3.87;;;;;;;17.41;100.00;97714.88;5033994;28;20204;-81
2023/07/30 03:39:43;;;;;;;4.27;3.60;;;;;;;17.44;100.00;97716.41;5033237;28;20247;-81
2023/07/30 03:42:10;;;;;;;4.43;3.83;;;;;;;17.46;100.00;97714.41;5034038;28;20213;-82
2023/07/30 03:44:36;;;;;;;7.10;4.00;;;;;;;17.47;100.00;97724.94;5035266;28;20209;-82
2023/07/30 03:47:03;;;;;;;4.83;3.40;;;;;;;17.44;100.00;97727.09;5035667;28;20738;-82
2023/07/30 03:49:30;;;;;;;5.43;3.80;;;;;;;17.43;100.00;97731.59;5034826;28;20233;-82
2023/07/30 03:51:56;;;;;;;3.80;3.50;;;;;;;17.48;100.00;97731.94;5033554;28;20687;-83
2023/07/30 03:54:24;;;;;;;4.43;3.30;;;;;;;17.49;100.00;97735.47;5033842;28;20209;-84
2023/07/30 03:56:50;;;;;;;3.80;3.43;;;;;;;17.49;100.00;97746.97;5033491;28;20209;-82
2023/07/30 03:59:17;;;;;;;4.53;3.40;;;;;;;17.48;100.00;97744.47;5032794;28;20738;-82
2023/07/30 04:01:43;;;;;;;3.73;3.43;;;;;;;17.44;100.00;97735.91;5033434;28;20296;-85
2023/07/30 04:04:10;;;;;;;3.90;3.50;;;;;;;17.43;100.00;97747.59;5033553;28;20216;-84
2023/07/30 04:06:36;;;;;;;5.20;3.70;;;;;;;17.46;100.00;97746.47;5033426;28;20590;-82
2023/07/30 04:09:03;;;;;;;5.33;3.30;;;;;;;17.47;100.00;97748.97;5033041;28;20225;-81
2023/07/30 04:11:31;;;;;;;5.43;3.60;;;;;;;17.50;100.00;97750.50;5032922;28;20608;-83
2023/07/30 04:13:57;;;;;;;4.27;3.33;;;;;;;17.56;100.00;97747.19;5033035;28;20220;-82
2023/07/30 04:16:24;;;;;;;4.00;3.60;;;;;;;17.57;100.00;97749.72;5033338;28;20205;-83
2023/07/30 04:18:50;;;;;;;4.03;3.23;;;;;;;17.60;100.00;97746.72;5033050;28;20259;-85
2023/07/30 04:21:17;;;;;;;3.80;3.50;;;;;;;17.64;100.00;97745.41;5032442;28;20217;-85
2023/07/30 04:23:43;;;;;;;3.80;3.40;;;;;;;17.68;100.00;97746.75;5033164;28;20209;-83
2023/07/30 04:26:10;;;;;;;4.03;3.57;;;;;;;17.70;100.00;97749.28;5032885;28;20690;-84
2023/07/30 04:28:37;;;;;;;5.43;3.73;;;;;;;17.67;100.00;97761.13;5032803;28;20228;-83
2023/07/30 04:31:04;;;;;;;4.13;3.73;;;;;;;17.66;100.00;97763.94;5032365;28;20216;-83
2023/07/30 04:33:30;;;;;;;3.57;3.23;;;;;;;17.61;100.00;97761.75;5032614;28;20231;-83
2023/07/30 04:35:57;;;;;;;3.93;3.53;;;;;;;17.61;100.00;97769.75;5032696;28;20211;-83
2023/07/30 04:38:24;;;;;;;4.40;3.73;;;;;;;17.61;100.00;97772.44;5032594;28;20229;-83
2023/07/30 04:40:50;;;;;;;3.70;3.40;;;;;;;17.59;100.00;97773.59;5032025;28;20304;-82
2023/07/30 04:43:17;;;;;;;5.17;3.77;;;;;;;17.59;100.00;97770.91;5032473;28;20216;-84
2023/07/30 04:45:45;;;;;;;5.33;3.77;;;;;;;17.58;100.00;97778.13;5032464;28;20268;-83
2023/07/30 04:48:12;;;;;;;3.70;3.30;;;;;;;17.57;100.00;97771.09;5032489;28;20248;-83
2023/07/30 04:50:41;;;;;;;4.10;3.70;;;;;;;17.57;100.00;97781.78;5031862;28;20235;-85
2023/07/30 04:53:08;;;;;;;5.80;4.10;;;;;;;17.59;100.00;97774.44;5031982;28;20263;-84
2023/07/30 04:55:34;;;;;;;4.33;3.93;;;;;;;17.63;100.00;97767.75;5032284;28;20205;-84
2023/07/30 04:58:02;;;;;;;4.77;4.03;;;;;;;17.69;100.00;97774.34;5032126;28;20352;-82
2023/07/30 05:00:28;;;;;;;4.80;4.10;;;;;;;17.73;100.00;97781.03;5031688;28;20212;-84
2023/07/30 05:02:56;;;;;;;4.97;4.03;;;;;;;17.78;100.00;97779.56;5032227;28;20204;-82
2023/07/30 05:05:23;;;;;;;5.53;3.83;;;;;;;17.79;100.00;97781.22;5032001;28;20232;-84
2023/07/30 05:07:49;;;;;;;4.33;3.80;;;;;;;17.79;100.00;97786.56;5032084;28;20213;-83
2023/07/30 05:10:16;;;;;;;5.57;3.90;;;;;;;17.78;100.00;97792.94;5031296;28;20208;-83
2023/07/30 05:12:43;;;;;;;4.03;3.63;;;;;;;17.75;100.00;97795.91;5032059;28;20270;-82
2023/07/30 05:15:09;;;;;;;5.50;4.30;;;;;;;17.75;100.00;97800.44;5032281;28;20209;-84
2023/07/30 05:17:36;;;;;;;5.47;4.23;;;;;;;17.77;100.00;97803.78;5031986;28;20209;-84
2023/07/30 05:20:04;;;;;;;4.10;3.70;;;;;;;17.76;100.00;97802.94;5031327;28;20213;-82
2023/07/30 05:22:31;;;;;;;5.07;3.50;;;;;;;17.80;100.00;97809.63;5032016;28;20211;-83
2023/07/30 05:24:57;;;;;;;3.40;3.10;;;;;;;17.75;100.00;97819.97;5031860;28;20208;-83
2023/07/30 05:27:24;;;;;;;3.20;2.90;;;;;;;17.73;100.00;97813.13;5031901;28;20209;-82
2023/07/30 05:29:50;;;;;;;4.30;3.00;;;;;;;17.71;100.00;97810.59;5030972;28;20328;-82
2023/07/30 05:32:17;;;;;;;5.00;2.77;;;;;;;17.68;100.00;97808.22;5032070;28;20582;-84
2023/07/30 05:34:43;;;;;;;3.47;3.00;;;;;;;17.67;100.00;97811.91;5031690;28;20220;-82
2023/07/30 05:37:11;;;;;;;2.80;2.60;;;;;;;17.65;100.00;97807.69;5031663;28;20204;-84
2023/07/30 05:39:38;;;;;;;2.23;2.03;;;;;;;17.58;100.00;97809.34;5030850;28;20232;-83
2023/07/30 05:42:04;;;;;;;4.20;2.53;;;;;;;17.54;100.00;97803.47;5031812;28;20212;-83
2023/07/30 05:44:31;;;;;;;3.37;2.17;;;;;;;17.54;100.00;97792.78;5031768;28;20208;-84
2023/07/30 05:46:57;;;;;;;3.17;2.37;;;;;;;17.55;100.00;97807.00;5031411;28;20679;-83
2023/07/30 05:49:24;;;;;;;2.33;2.13;;;;;;;17.53;100.00;97795.59;5030717;28;20245;-84
2023/07/30 05:51:50;;;;;;;2.37;2.17;;;;;;;17.50;100.00;97802.09;5031579;28;20223;-82
2023/07/30 05:54:19;;;;;;;2.63;2.20;;;;;;;17.48;100.00;97801.41;5031448;28;20707;-83
2023/07/30 05:56:45;;;;;;;3.50;2.10;;;;;;;17.45;100.00;97804.41;5031537;28;20211;-82
2023/07/30 05:59:11;;;;;;;3.00;2.20;;;;;;;17.48;100.00;97804.09;5030579;28;20239;-82
2023/07/30 06:01:38;;;;;;;2.27;2.07;;;;;;;17.54;100.00;97813.31;5031428;28;20567;-82
2023/07/30 06:04:05;;;;;;;2.43;1.90;;;;;;;17.60;100.00;97813.53;5031759;28;20216;-82
2023/07/30 06:06:31;;;;;;;1.97;1.80;;;;;;;17.66;100.00;97812.91;5035230;28;20233;-82
2023/07/30 06:08:58;;;;;;;2.03;1.60;;;;;;;17.70;100.00;97808.94;5035376;28;20713;-83
2023/07/30 06:11:26;;;;;;;2.10;1.90;;;;;;;17.68;100.00;97824.25;5035058;28;20212;-82
2023/07/30 06:13:52;;;;;;;2.37;1.70;;;;;;;17.61;100.00;97815.19;5035394;28;20209;-82
2023/07/30 06:16:20;;;;;;;2.63;1.90;;;;;;;17.66;100.00;97807.56;5035340;28;20201;-82
2023/07/30 06:18:46;;;;;;;2.50;1.50;;;;;;;17.71;100.00;97807.94;5035127;28;20294;-83
2023/07/30 06:21:13;;;;;;;1.97;1.70;;;;;;;17.80;100.00;97814.16;5034367;28;20212;-82
2023/07/30 06:23:39;;;;;;;1.97;1.77;;;;;;;17.94;100.00;97809.06;5035481;28;20231;-82
2023/07/30 06:26:06;;;;;;;1.90;1.73;;;;;;;18.10;100.00;97822.50;5035321;28;20235;-82
2023/07/30 06:28:34;;;;;;;1.63;1.53;;;;;;;18.21;100.00;97824.03;5035408;28;20229;-83
2023/07/30 06:31:01;;;;;;;2.50;1.87;;;;;;;18.59;100.00;97819.03;5034453;28;20576;-83
2023/07/30 06:33:27;;;;;;;2.63;1.77;;;;;;;19.08;100.00;97826.16;5034792;28;20295;-83
2023/07/30 06:35:54;;;;;;;3.77;1.77;;;;;;;19.30;100.00;97835.41;5047894;28;20299;-81
2023/07/30 06:38:21;;;;;;;1.93;1.43;;;;;;;19.47;100.00;97829.91;5050980;28;20240;-80
2023/07/30 06:40:47;;;;;;;1.50;1.40;;;;;;;19.82;100.00;97848.28;5052222;28;20235;-80
2023/07/30 06:43:14;;;;;;;1.73;1.37;;;;;;;20.23;100.00;97862.50;5054143;28;20219;-81
2023/07/30 06:45:42;;;;;;;1.97;1.50;;;;;;;20.80;100.00;97875.50;5049386;28;20233;-83
2023/07/30 06:50:36;;;;;;;2.23;1.30;;;;;;;21.29;100.00;97894.91;5032261;28;20337;-90
2023/07/30 06:53:02;;;;;;;1.67;1.40;;;;;;;20.98;100.00;97894.91;5034484;28;20214;-89
2023/07/30 06:55:29;;;;;;;2.13;1.57;;;;;;;20.79;100.00;97898.00;5034653;28;20209;-84
2023/07/30 06:57:55;;;;;;;2.33;1.73;;;;;;;20.66;100.00;97896.91;5033734;28;20208;-79
2023/07/30 07:00:22;;;;;;;1.90;1.80;;;;;;;20.54;100.00;97907.16;5033348;28;20237;-84
2023/07/30 07:02:50;;;;;;;3.50;1.70;;;;;;;20.43;100.00;97898.66;5034039;28;20217;-83
2023/07/30 07:05:17;;;;;;;1.70;1.60;;;;;;;20.25;100.00;97892.66;5034300;28;20691;-81
2023/07/30 07:07:44;;;;;;;2.07;1.87;;;;;;;20.11;100.00;97907.63;5034144;28;20255;-86
2023/07/30 07:10:11;;;;;;;2.13;1.93;;;;;;;20.00;100.00;97910.63;5033422;28;20234;-84
2023/07/30 07:12:38;;;;;;;3.30;1.87;;;;;;;19.90;100.00;97907.31;5033909;28;20209;-85
2023/07/30 07:15:06;;;;;;;1.97;1.80;;;;;;;19.86;100.00;97907.78;5033720;28;20244;-84
2023/07/30 07:17:32;;;;;;;2.80;1.90;;;;;;;19.77;100.00;97908.81;5033891;28;20209;-84
2023/07/30 07:20:00;;;;;;;2.23;1.93;;;;;;;19.74;100.00;97909.16;5033423;28;20233;-85
2023/07/30 07:22:26;;;;;;;1.80;1.70;;;;;;;19.69;100.00;97906.97;5034134;28;20315;-86
2023/07/30 07:24:53;;;;;;;2.60;1.90;;;;;;;19.59;100.00;97911.66;5033752;28;20213;-86
2023/07/30 07:27:20;;;;;;;2.63;2.42;;;;;;;19.58;100.00;97915.31;5031583;28;20824;-85
2023/07/30 07:29:47;;;;;;;2.80;2.10;;;;;;;19.54;100.00;97924.72;5030479;28;20770;-88
2023/07/30 07:32:13;;;;;;;3.07;2.40;;;;;;;19.54;100.00;97922.06;5031779;28;20209;-84
2023/07/30 07:34:40;;;;;;;2.37;2.17;;;;;;;19.49;100.00;97923.53;5032713;28;20577;-84
2023/07/30 07:37:08;;;;;;;2.10;1.90;;;;;;;19.42;100.00;97922.53;5031927;28;20208;-81
2023/07/30 07:39:34;;;;;;;2.53;2.20;;;;;;;19.41;100.00;97932.44;5032000;28;20244;-77
2023/07/30 07:42:01;;;;;;;2.93;2.67;;;;;;;19.38;100.00;97930.06;5032722;28;20377;-85
2023/07/30 07:44:27;;;;;;;2.80;2.17;;;;;;;19.16;100.00;97928.00;5031750;28;20559;-85
2023/07/30 07:46:54;;;;;;;3.30;1.87;;;;;;;18.84;100.00;97935.91;5032342;28;20240;-86
2023/07/30 07:49:20;;;;;;;1.90;1.70;;;;;;;18.70;100.00;97933.88;5031543;28;20239;-88
2023/07/30 07:51:46;;;;;;;2.70;2.30;;;;;;;18.57;100.00;97930.78;5031815;28;20220;-87
2023/07/30 07:54:14;;;;;;;2.73;1.80;;;;;;;18.54;100.00;97933.78;5032456;28;20235;-87
2023/07/30 07:56:41;;;;;;;1.80;1.67;;;;;;;18.62;100.00;97938.34;5031598;28;20201;-86
2023/07/30 07:59:07;;;;;;;2.27;2.07;;;;;;;18.68;100.00;97941.22;5031188;28;20237;-79
2023/07/30 08:01:34;;;;;;;3.13;2.33;;;;;;;18.73;100.00;97936.22;5033339;28;20220;-78
2023/07/30 08:04:00;;;;;;;2.83;2.20;;;;;;;18.81;100.00;97925.53;5033425;28;20639;-91
2023/07/30 08:06:27;;;;;;;2.60;2.00;;;;;;;18.94;100.00;97923.25;5032948;28;20233;-91
2023/07/30 08:08:54;;;;;;;2.23;2.03;;;;;;;18.98;100.00;97921.94;5033191;28;20224;-91
2023/07/30 08:11:21;;;;;;;3.17;1.60;;;;;;;19.08;100.00;97933.31;5032825;28;20209;-91
2023/07/30 08:13:48;;;;;;;2.00;1.80;;;;;;;19.18;100.00;97935.84;5033966;28;20217;-91
2023/07/30 08:16:14;;;;;;;2.50;2.20;;;;;;;19.28;100.00;97929.41;5034099;28;20209;-91
2023/07/30 08:18:41;;;;;;;2.93;1.87;;;;;;;19.33;100.00;97936.94;5033650;28;20238;-91
2023/07/30 08:21:08;;;;;;;2.53;1.80;;;;;;;19.43;100.00;97942.97;5032552;28;20217;-91
2023/07/30 08:23:34;;;;;;;2.40;2.20;;;;;;;19.45;100.00;97949.84;5033077;28;20209;-91
2023/07/30 08:26:01;;;;;;;1.80;1.70;;;;;;;19.50;100.00;97944.00;5032765;28;20209;-90
2023/07/30 08:28:28;;;;;;;2.20;2.00;;;;;;;19.60;100.00;97945.50;5031919;28;20235;-90
2023/07/30 08:31:01;;;;;;;3.70;2.10;;;;;;;19.74;100.00;97952.88;5031667;28;20209;-90
2023/07/30 08:33:27;;;;;;;2.20;2.00;;;;;;;19.82;100.00;97950.19;5032701;28;20212;-89
2023/07/30 08:35:56;;;;;;;2.00;1.90;;;;;;;19.97;100.00;97942.31;5030608;28;20585;-90
2023/07/30 08:38:22;;;;;;;2.57;1.90;;;;;;;20.20;100.00;97949.56;5029678;28;20224;-90
2023/07/30 08:40:50;;;;;;;2.03;1.70;;;;;;;20.19;100.00;97947.84;5029680;28;20670;-91
2023/07/30 08:43:18;;;;;;;3.33;2.10;;;;;;;20.24;100.00;97956.22;5030975;28;20212;-92
2023/07/30 08:45:46;;;;;;;2.10;1.90;;;;;;;20.17;100.00;97943.69;5032900;28;20217;-91
2023/07/30 08:48:12;;;;;;;2.20;2.00;;;;;;;20.19;100.00;97942.47;5032063;28;20729;-91
2023/07/30 08:50:40;;;;;;;2.80;1.93;;;;;;;20.21;100.00;97945.00;5031715;28;20219;-91
2023/07/30 08:53:08;;;;;;;2.10;1.90;;;;;;;20.15;100.00;97945.69;5032091;28;20209;-91
2023/07/30 08:55:36;;;;;;;3.10;1.80;;;;;;;20.22;100.00;97957.41;5031993;28;20636;-92
2023/07/30 08:58:05;;;;;;;4.30;2.33;;;;;;;20.33;100.00;97951.69;5032088;28;20206;-91
2023/07/30 09:00:34;;;;;;;2.93;2.00;;;;;;;20.45;100.00;97951.19;5031540;28;20209;-90
2023/07/30 09:03:04;;;;;;;2.37;2.00;;;;;;;20.62;100.00;97960.03;5034810;28;20210;-90
2023/07/30 09:05:32;;;;;;;2.43;1.80;;;;;;;20.74;100.00;97964.00;5037882;28;20220;-90
2023/07/30 09:07:58;;;;;;;1.83;1.60;;;;;;;20.93;100.00;97963.63;5037977;28;20239;-90
2023/07/30 09:10:27;;;;;;;2.07;1.77;;;;;;;21.12;100.00;97964.06;5033979;28;20698;-90
2023/07/30 09:12:54;;;;;;;2.10;1.90;;;;;;;21.29;100.00;97964.78;5032001;28;20209;-90
2023/07/30 09:15:30;;;;;;;2.10;1.70;;;;;;;21.31;100.00;97958.22;5031868;28;20266;-90
2023/07/30 09:17:57;;;;;;;2.27;1.90;;;;;;;21.41;100.00;97955.31;5032121;28;20277;-90
2023/07/30 09:20:25;;;;;;;2.90;1.83;;;;;;;21.43;100.00;97959.50;5030939;28;20749;-90
2023/07/30 09:22:52;;;;;;;4.43;1.73;;;;;;;21.35;100.00;97954.19;5032125;28;20216;-90
2023/07/30 09:25:20;;;;;;;2.20;2.00;;;;;;;21.32;100.00;97957.22;5031962;28;20212;-91
2023/07/30 09:27:48;;;;;;;1.90;1.80;;;;;;;21.16;100.00;97959.16;5031699;28;20224;-90
2023/07/30 09:30:15;;;;;;;1.97;1.87;;;;;;;21.17;100.00;97959.00;5030861;28;20232;-91
2023/07/30 09:32:43;;;;;;;2.37;1.67;;;;;;;21.23;100.00;97958.28;5031700;28;20208;-90
2023/07/30 09:35:11;;;;;;;2.10;1.90;;;;;;;21.24;100.00;97965.34;5031617;28;20224;-89
2023/07/30 09:37:41;;;;;;;3.23;1.90;;;;;;;21.12;100.00;97966.75;5031684;28;20211;-90
2023/07/30 09:40:09;;;;;;;2.47;2.13;;;;;;;21.25;100.00;97958.94;5030838;28;20228;-90
2023/07/30 09:42:39;;;;;;;2.07;1.87;;;;;;;21.52;100.00;97971.06;5031399;28;20208;-90
2023/07/30 09:45:07;;;;;;;2.43;2.13;;;;;;;21.72;100.00;97959.69;5031689;28;20235;-91
2023/07/30 09:47:35;;;;;;;2.40;1.90;;;;;;;21.87;100.00;97960.56;5031457;28;20236;-90
2023/07/30 09:50:02;;;;;;;2.23;1.67;;;;;;;21.99;100.00;97959.13;5030631;28;20239;-89
2023/07/30 09:52:30;;;;;;;2.30;1.90;;;;;;;22.18;98.19;97955.09;5031318;28;20220;-91
2023/07/30 09:54:59;;;;;;;1.67;1.57;;;;;;;22.34;96.15;97963.00;5031245;28;20209;-91
2023/07/30 09:57:25;;;;;;;2.43;1.77;;;;;;;22.24;94.14;97957.88;5031166;28;20266;-90
2023/07/30 09:59:53;;;;;;;2.00;1.80;;;;;;;22.23;93.87;97960.75;5030383;28;20239;-91
2023/07/30 10:02:19;;;;;;;2.27;2.07;;;;;;;22.25;89.27;97950.66;5031386;28;20210;-90
2023/07/30 10:04:50;;;;;;;2.50;2.10;;;;;;;22.23;87.52;97945.44;5031036;28;20208;-91
2023/07/30 10:07:20;;;;;;;1.90;1.60;;;;;;;22.15;87.79;97953.59;5030963;28;20231;-90
2023/07/30 10:09:49;;;;;;;2.23;2.03;;;;;;;22.33;88.04;97959.50;5030343;28;20225;-91
2023/07/30 10:12:21;;;;;;;3.83;2.30;;;;;;;22.56;85.88;97946.78;5030813;28;20214;-90
2023/07/30 10:14:48;;;;;;;2.33;1.70;;;;;;;22.58;83.33;97944.78;5031330;28;20294;-91
2023/07/30 10:17:17;;;;;;;3.83;2.03;;;;;;;22.68;82.38;97950.69;5031227;28;20208;-91
2023/07/30 10:19:48;;;;;;;2.53;1.70;;;;;;;22.74;80.11;97943.75;5030388;28;20620;-91
2023/07/30 10:22:24;;;;;;;2.90;2.10;;;;;;;22.79;78.32;97939.47;5031269;28;20201;-90
2023/07/30 10:24:58;;;;;;;2.97;2.00;;;;;;;22.76;76.61;97936.31;5030853;28;20222;-91
2023/07/30 10:27:28;;;;;;;3.10;2.00;;;;;;;22.68;75.08;97923.75;5030887;28;20229;-92
2023/07/30 10:30:11;;;;;;;2.40;2.20;;;;;;;22.67;77.90;97946.34;5030199;28;20236;-92
2023/07/30 10:32:39;;;;;;;2.37;1.73;;;;;;;22.63;72.63;97920.81;5031141;28;20599;-90
2023/07/30 10:35:06;;;;;;;4.23;1.93;;;;;;;22.78;75.68;97940.50;5030777;28;20204;-91
2023/07/30 10:37:33;;;;;;;2.37;2.00;;;;;;;22.76;75.24;97929.06;5030700;28;20212;-91
2023/07/30 10:39:59;;;;;;;2.43;2.10;;;;;;;22.83;72.23;97921.06;5030322;28;20233;-91
2023/07/30 10:42:35;;;;;;;3.43;1.70;;;;;;;22.78;72.05;97918.94;5030647;28;20212;-91
2023/07/30 10:45:01;;;;;;;5.23;2.10;;;;;;;22.50;73.21;97936.75;5030738;28;20479;-91
2023/07/30 10:47:28;;;;;;;2.00;1.80;;;;;;;22.46;73.33;97940.88;5030749;28;20240;-91
2023/07/30 10:49:56;;;;;;;3.77;2.17;;;;;;;22.47;74.03;97934.44;5029934;28;20248;-91
2023/07/30 10:52:25;;;;;;;3.07;2.27;;;;;;;22.53;75.22;97955.25;5034596;28;20267;-91
2023/07/30 10:55:00;;;;;;;1.70;1.60;;;;;;;22.59;73.50;97930.28;5034533;28;20240;-91
2023/07/30 10:57:31;;;;;;;4.37;2.10;;;;;;;22.66;71.97;97923.13;5034570;28;20211;-92
2023/07/30 11:00:00;;;;;;;2.30;2.07;;;;;;;22.74;73.40;97941.06;5033739;28;20601;-93
2023/07/30 11:02:28;;;;;;;2.20;2.00;;;;;;;23.00;73.42;97939.56;5034350;28;20205;-91
2023/07/30 11:04:55;;;;;;;2.20;2.00;;;;;;;23.16;70.88;97923.19;5034370;28;20212;-92
2023/07/30 11:07:21;;;;;;;2.23;2.03;;;;;;;23.28;70.38;97935.13;5034049;28;20229;-90
2023/07/30 11:09:59;;;;;;;2.23;1.80;;;;;;;23.21;67.22;97920.75;5033563;28;20232;-91
2023/07/30 11:12:26;;;;;;;2.90;2.40;;;;;;;23.09;68.37;97938.41;5034273;28;20213;-91
2023/07/30 11:15:02;;;;;;;2.37;2.00;;;;;;;23.00;70.72;97955.72;5034043;28;20243;-92
2023/07/30 11:17:29;;;;;;;2.93;1.97;;;;;;;23.01;68.91;97951.16;5034237;28;20591;-91
2023/07/30 11:19:56;;;;;;;3.23;1.87;;;;;;;23.16;70.69;97966.31;5033573;28;20235;-90
2023/07/30 11:22:31;;;;;;;2.20;2.00;;;;;;;23.12;70.51;97964.16;5033918;28;20215;-90
2023/07/30 11:24:58;;;;;;;2.87;2.10;;;;;;;22.54;71.46;97975.78;5033910;28;20281;-89
2023/07/30 11:27:24;;;;;;;2.37;1.80;;;;;;;21.93;74.82;97997.50;5033835;28;20232;-90
2023/07/30 11:29:58;;;;;;;2.53;1.87;;;;;;;21.46;77.28;98020.97;5033166;28;20238;-89
2023/07/30 11:32:29;;;;;;;1.87;1.70;;;;;;;21.07;77.59;98012.09;5033443;28;20300;-88
2023/07/30 11:34:56;;;;;;;2.47;1.83;;;;;;;20.93;78.77;98014.69;5033675;28;20220;-89
2023/07/30 11:37:24;;;;;;;3.17;2.07;;;;;;;20.81;83.29;98038.38;5033444;28;20214;-88
2023/07/30 11:39:55;;;;;;;1.87;1.60;;;;;;;20.89;83.51;98038.38;5035240;28;20233;-88
2023/07/30 11:42:21;;;;;;;2.00;1.80;;;;;;;21.09;83.63;98028.88;5037076;28;20207;-88
2023/07/30 11:44:48;;;;;;;3.07;1.93;;;;;;;21.50;80.85;98027.69;5036880;28;20213;-88
2023/07/30 11:47:22;;;;;;;2.10;1.90;;;;;;;21.86;78.62;98007.31;5035215;28;20296;-89
2023/07/30 11:49:57;;;;;;;3.23;1.80;;;;;;;21.95;75.57;97992.78;5032710;28;20240;-89
2023/07/30 11:52:23;;;;;;;2.97;1.70;;;;;;;21.93;78.40;98010.97;5033275;28;20698;-89
2023/07/30 11:55:00;;;;;;;2.20;1.90;;;;;;;21.95;75.65;98000.03;5033635;28;20579;-89
2023/07/30 11:57:34;;;;;;;3.43;2.10;;;;;;;21.96;81.47;98034.84;5033309;28;20694;-88
2023/07/30 12:00:01;;;;;;;1.90;1.70;;;;;;;22.11;79.20;98024.97;5032720;28;20224;-88
2023/07/30 12:02:27;;;;;;;2.80;1.80;;;;;;;22.17;76.38;98015.31;5031914;28;20701;-89
2023/07/30 12:04:57;;;;;;;2.03;1.83;;;;;;;22.20;74.47;97999.63;5033738;28;20561;-89
2023/07/30 12:07:25;;;;;;;2.17;1.70;;;;;;;22.10;72.19;97982.91;5033084;28;20228;-88
2023/07/30 12:09:52;;;;;;;2.60;2.00;;;;;;;22.25;74.51;97986.47;5032441;28;20232;-89
2023/07/30 12:12:19;;;;;;;2.30;2.00;;;;;;;22.43;73.14;97994.25;5033216;28;20212;-88
2023/07/30 12:14:54;;;;;;;3.50;1.73;;;;;;;22.49;73.62;98001.63;5033024;28;20244;-88
2023/07/30 12:17:20;;;;;;;2.57;1.83;;;;;;;22.46;72.72;97989.34;5033111;28;20208;-88